Time;durP1;ratioP1;P1;durP2;ratioP2;P2;SDS_P1;SDS_P2;PMS_P1;PMS_P2;Temp;Humidity;BMP_temperature;BMP_pressure;BME280_temperature;BME280_humidity;BME280_pressure;Samples;Min_cycle;Max_cycle;Signal;HPM_P1;HPM_P2
2021/04/25 00:01:23;;;;;;;7.85;4.22;;;;;;;;;;4914354;29;20134;-74
2021/04/25 00:03:50;;;;;;;10.68;5.25;;;;;;;;;;4899156;29;20075;-74
2021/04/25 00:06:17;;;;;;;9.55;4.35;;;;;;;;;;4913846;29;20119;-74
2021/04/25 00:08:43;;;;;;;8.77;4.60;;;;;;;;;;4898796;29;20103;-74
2021/04/25 00:11:09;;;;;;;7.95;3.72;;;;;;;;;;4898484;29;20075;-74
2021/04/25 00:13:35;;;;;;;7.50;4.90;;;;;;;;;;4883384;29;20080;-75
2021/04/25 00:16:01;;;;;;;13.45;4.28;;;;;;;;;;4913483;29;20044;-75
2021/04/25 00:18:27;;;;;;;9.95;4.15;;;;;;;;;;4915585;29;20059;-74
2021/04/25 00:20:53;;;;;;;9.23;4.10;;;;;;;;;;4914093;29;20059;-74
2021/04/25 00:23:19;;;;;;;11.95;4.30;;;;;;;;;;4898846;29;20138;-75
2021/04/25 00:25:45;;;;;;;6.60;4.15;;;;;;;;;;4914877;29;20052;-75
2021/04/25 00:28:12;;;;;;;8.50;4.20;;;;;;;;;;4898503;29;20087;-75
2021/04/25 00:30:38;;;;;;;6.30;3.80;;;;;;;;;;4898428;29;20052;-74
2021/04/25 00:33:04;;;;;;;7.78;4.03;;;;;;;;;;4913953;29;20064;-74
2021/04/25 00:35:30;;;;;;;6.60;3.97;;;;;;;;;;4898023;29;20060;-74
2021/04/25 00:37:56;;;;;;;6.97;3.90;;;;;;;;;;4898505;29;20468;-75
2021/04/25 00:40:22;;;;;;;7.63;4.80;;;;;;;;;;4882965;29;20107;-74
2021/04/25 00:42:49;;;;;;;8.43;4.13;;;;;;;;;;4915306;29;20476;-74
2021/04/25 00:45:16;;;;;;;6.93;3.72;;;;;;;;;;4913720;29;20107;-75
2021/04/25 00:47:45;;;;;;;7.05;4.40;;;;;;;;;;4882708;29;20112;-74
2021/04/25 00:50:12;;;;;;;9.57;3.90;;;;;;;;;;4898405;29;20468;-75
2021/04/25 00:52:41;;;;;;;8.55;4.57;;;;;;;;;;4898586;29;20104;-74
2021/04/25 00:55:08;;;;;;;7.55;3.85;;;;;;;;;;4898197;29;20120;-74
2021/04/25 00:57:35;;;;;;;9.80;4.70;;;;;;;;;;4896936;29;20082;-73
2021/04/25 01:00:02;;;;;;;7.97;4.38;;;;;;;;;;4883414;29;20535;-74
2021/04/25 01:02:29;;;;;;;9.65;5.13;;;;;;;;;;4895385;29;20539;-73
2021/04/25 01:04:55;;;;;;;6.57;4.18;;;;;;;;;;4883278;29;20056;-74
2021/04/25 01:07:21;;;;;;;6.43;3.72;;;;;;;;;;4913119;29;20499;-74
2021/04/25 01:09:47;;;;;;;6.63;4.35;;;;;;;;;;4918325;29;20099;-74
2021/04/25 01:12:13;;;;;;;7.32;4.57;;;;;;;;;;4902044;29;20052;-74
2021/04/25 01:14:39;;;;;;;6.32;4.38;;;;;;;;;;4917641;29;20083;-74
2021/04/25 01:17:05;;;;;;;6.57;3.78;;;;;;;;;;4917883;29;20052;-74
2021/04/25 01:19:31;;;;;;;8.10;4.05;;;;;;;;;;4918512;29;20056;-74
2021/04/25 01:21:57;;;;;;;8.93;4.57;;;;;;;;;;4917227;29;20054;-74
2021/04/25 01:24:23;;;;;;;8.73;4.45;;;;;;;;;;4917354;29;20100;-74
2021/04/25 01:26:49;;;;;;;8.02;4.10;;;;;;;;;;4900951;29;20056;-74
2021/04/25 01:29:15;;;;;;;8.80;4.03;;;;;;;;;;4901790;29;20055;-74
2021/04/25 01:31:41;;;;;;;9.55;4.25;;;;;;;;;;4918281;29;20096;-74
2021/04/25 01:34:08;;;;;;;7.40;4.50;;;;;;;;;;4885765;29;20091;-75
2021/04/25 01:36:34;;;;;;;5.88;4.10;;;;;;;;;;4917869;29;20127;-75
2021/04/25 01:39:00;;;;;;;10.00;4.07;;;;;;;;;;4918272;29;20396;-73
2021/04/25 01:41:26;;;;;;;6.78;4.18;;;;;;;;;;4918096;29;20048;-75
2021/04/25 01:43:52;;;;;;;7.57;4.15;;;;;;;;;;4917068;29;20048;-75
2021/04/25 01:46:22;;;;;;;8.65;4.47;;;;;;;;;;4900761;29;20131;-74
2021/04/25 01:48:48;;;;;;;9.90;4.45;;;;;;;;;;4918231;29;20052;-74
2021/04/25 01:51:14;;;;;;;7.40;4.40;;;;;;;;;;4901347;29;20052;-74
2021/04/25 01:53:40;;;;;;;8.18;4.65;;;;;;;;;;4901177;29;20048;-74
2021/04/25 01:56:06;;;;;;;6.93;4.68;;;;;;;;;;4900491;29;20053;-74
2021/04/25 01:58:32;;;;;;;6.35;3.90;;;;;;;;;;4916700;29;20060;-75
2021/04/25 02:00:59;;;;;;;7.97;4.40;;;;;;;;;;4897633;29;20044;-74
2021/04/25 02:03:25;;;;;;;7.50;4.28;;;;;;;;;;4897925;29;20048;-74
2021/04/25 02:05:52;;;;;;;8.30;4.47;;;;;;;;;;4900252;29;20189;-75
2021/04/25 02:08:18;;;;;;;10.10;4.72;;;;;;;;;;4899481;29;20389;-75
2021/04/25 02:10:45;;;;;;;10.68;4.85;;;;;;;;;;4900973;29;20100;-74
2021/04/25 02:13:11;;;;;;;10.52;4.95;;;;;;;;;;4917646;29;20056;-75
2021/04/25 02:15:37;;;;;;;6.47;3.78;;;;;;;;;;4900129;29;20052;-75
2021/04/25 02:18:04;;;;;;;10.48;4.43;;;;;;;;;;4900459;29;20059;-74
2021/04/25 02:20:30;;;;;;;6.05;4.07;;;;;;;;;;4885209;29;20116;-74
2021/04/25 02:22:57;;;;;;;6.45;3.92;;;;;;;;;;4900822;29;20052;-74
2021/04/25 02:25:23;;;;;;;9.00;4.30;;;;;;;;;;4915891;29;20052;-74
2021/04/25 02:27:49;;;;;;;8.73;4.25;;;;;;;;;;4900625;29;20111;-74
2021/04/25 02:30:19;;;;;;;7.55;4.63;;;;;;;;;;4897019;29;20053;-74
2021/04/25 02:32:46;;;;;;;8.82;4.10;;;;;;;;;;4897243;29;20048;-75
2021/04/25 02:35:13;;;;;;;10.55;4.28;;;;;;;;;;4897017;29;20112;-74
2021/04/25 02:37:42;;;;;;;7.57;4.10;;;;;;;;;;4895785;29;20056;-74
2021/04/25 02:40:10;;;;;;;8.77;4.65;;;;;;;;;;4884863;29;20056;-74
2021/04/25 02:42:37;;;;;;;9.80;4.43;;;;;;;;;;4885050;29;20119;-75
2021/04/25 02:45:04;;;;;;;8.82;4.68;;;;;;;;;;4860192;29;20049;-74
2021/04/25 02:47:31;;;;;;;7.97;4.50;;;;;;;;;;4908016;29;20083;-74
2021/04/25 02:49:57;;;;;;;11.02;6.40;;;;;;;;;;4884510;29;20132;-74
2021/04/25 02:52:26;;;;;;;8.23;4.68;;;;;;;;;;4900054;29;20079;-74
2021/04/25 02:54:55;;;;;;;6.35;4.15;;;;;;;;;;4916888;29;20063;-74
2021/04/25 02:57:21;;;;;;;9.85;4.70;;;;;;;;;;4915227;29;20103;-74
2021/04/25 02:59:48;;;;;;;6.70;3.97;;;;;;;;;;4900015;29;20134;-74
2021/04/25 03:02:14;;;;;;;8.50;4.70;;;;;;;;;;4899774;29;20427;-74
2021/04/25 03:04:40;;;;;;;9.27;4.78;;;;;;;;;;4916825;29;20056;-74
2021/04/25 03:07:06;;;;;;;8.00;4.95;;;;;;;;;;4898902;29;20056;-75
2021/04/25 03:09:32;;;;;;;8.25;4.57;;;;;;;;;;4915655;29;20067;-75
2021/04/25 03:11:58;;;;;;;9.10;4.90;;;;;;;;;;4957611;23;20086;-76
2021/04/25 03:14:24;;;;;;;8.50;4.30;;;;;;;;;;4935586;29;20110;-76
2021/04/25 03:16:50;;;;;;;7.68;5.18;;;;;;;;;;4934708;29;20048;-76
2021/04/25 03:19:16;;;;;;;7.65;4.45;;;;;;;;;;4935074;29;20058;-76
2021/04/25 03:21:42;;;;;;;10.20;5.03;;;;;;;;;;4935631;29;20086;-76
2021/04/25 03:24:09;;;;;;;8.23;4.43;;;;;;;;;;4950095;29;20079;-76
2021/04/25 03:26:35;;;;;;;7.63;4.90;;;;;;;;;;4933679;29;20423;-76
2021/04/25 03:29:01;;;;;;;11.00;5.55;;;;;;;;;;4937996;29;20106;-76
2021/04/25 03:31:27;;;;;;;10.07;5.18;;;;;;;;;;4934996;29;20047;-76
2021/04/25 03:33:53;;;;;;;11.15;5.65;;;;;;;;;;4935338;29;20058;-76
2021/04/25 03:36:20;;;;;;;8.38;5.18;;;;;;;;;;4934751;29;20059;-76
2021/04/25 03:38:46;;;;;;;7.47;4.65;;;;;;;;;;4949569;29;20079;-76
2021/04/25 03:41:12;;;;;;;8.18;4.68;;;;;;;;;;4933845;29;20154;-76
2021/04/25 03:43:38;;;;;;;10.63;4.97;;;;;;;;;;4934126;29;20471;-76
2021/04/25 03:46:04;;;;;;;13.20;5.38;;;;;;;;;;4934398;29;20082;-76
2021/04/25 03:48:30;;;;;;;9.18;5.07;;;;;;;;;;4935140;29;20474;-76
2021/04/25 03:50:56;;;;;;;7.30;4.40;;;;;;;;;;4934752;29;20102;-76
2021/04/25 03:53:22;;;;;;;9.63;5.25;;;;;;;;;;4918209;29;20490;-76
2021/04/25 03:55:49;;;;;;;10.10;5.00;;;;;;;;;;4934342;29;20051;-76
2021/04/25 03:58:15;;;;;;;10.30;5.15;;;;;;;;;;4934768;29;20051;-76
2021/04/25 04:00:41;;;;;;;8.32;4.68;;;;;;;;;;4934822;29;20052;-77
2021/04/25 04:03:07;;;;;;;11.07;5.38;;;;;;;;;;4934786;29;20103;-76
2021/04/25 04:05:33;;;;;;;10.15;5.10;;;;;;;;;;4934418;29;20059;-76
2021/04/25 04:07:59;;;;;;;7.47;5.07;;;;;;;;;;4917746;29;20111;-76
2021/04/25 04:10:25;;;;;;;11.07;5.28;;;;;;;;;;4934812;29;20564;-76
2021/04/25 04:12:51;;;;;;;11.32;5.95;;;;;;;;;;4917389;29;20076;-76
2021/04/25 04:15:17;;;;;;;9.48;5.00;;;;;;;;;;4934293;29;20060;-76
2021/04/25 04:17:43;;;;;;;9.80;5.15;;;;;;;;;;4917451;29;20084;-76
2021/04/25 04:20:11;;;;;;;13.45;5.53;;;;;;;;;;4917852;29;20419;-76
2021/04/25 04:22:37;;;;;;;9.32;5.20;;;;;;;;;;4917820;29;20047;-76
2021/04/25 04:25:04;;;;;;;10.57;5.07;;;;;;;;;;4917448;29;20055;-76
2021/04/25 04:27:30;;;;;;;11.20;6.05;;;;;;;;;;4936145;29;20107;-76
2021/04/25 04:29:57;;;;;;;9.35;5.15;;;;;;;;;;4918080;29;20047;-76
2021/04/25 04:32:23;;;;;;;10.10;4.95;;;;;;;;;;4916847;29;20052;-76
2021/04/25 04:34:53;;;;;;;10.18;5.93;;;;;;;;;;4918243;29;20232;-76
2021/04/25 04:37:19;;;;;;;10.02;5.53;;;;;;;;;;4933789;29;20107;-76
2021/04/25 04:39:46;;;;;;;9.32;5.13;;;;;;;;;;4930020;29;20056;-76
2021/04/25 04:42:12;;;;;;;13.77;6.18;;;;;;;;;;4948900;29;20126;-76
2021/04/25 04:44:38;;;;;;;7.40;4.82;;;;;;;;;;4934462;29;20102;-76
2021/04/25 04:47:04;;;;;;;13.13;5.75;;;;;;;;;;4933728;29;20483;-76
2021/04/25 04:49:30;;;;;;;9.57;5.70;;;;;;;;;;4934350;29;20059;-76
2021/04/25 04:51:56;;;;;;;8.30;5.18;;;;;;;;;;4948957;29;20511;-76
2021/04/25 04:54:22;;;;;;;8.25;5.30;;;;;;;;;;4933406;29;20052;-76
2021/04/25 04:56:48;;;;;;;10.25;5.60;;;;;;;;;;4933664;29;20051;-76
2021/04/25 04:59:14;;;;;;;9.55;5.53;;;;;;;;;;4940593;29;20460;-76
2021/04/25 05:01:40;;;;;;;9.55;4.40;;;;;;;;;;4934096;29;20047;-76
2021/04/25 05:04:07;;;;;;;8.75;5.60;;;;;;;;;;4933271;29;20058;-76
2021/04/25 05:06:33;;;;;;;9.88;5.50;;;;;;;;;;4933803;29;20063;-76
2021/04/25 05:08:59;;;;;;;9.48;5.80;;;;;;;;;;4934210;29;20455;-76
2021/04/25 05:11:25;;;;;;;10.43;5.25;;;;;;;;;;4934016;29;20099;-76
2021/04/25 05:13:51;;;;;;;11.90;6.25;;;;;;;;;;4933037;29;20115;-76
2021/04/25 05:16:18;;;;;;;8.77;5.80;;;;;;;;;;4933548;29;20075;-76
2021/04/25 05:18:44;;;;;;;10.38;5.93;;;;;;;;;;4932470;29;20142;-76
2021/04/25 05:21:10;;;;;;;10.75;6.07;;;;;;;;;;4934094;29;20043;-76
2021/04/25 05:23:36;;;;;;;9.68;5.45;;;;;;;;;;4932837;29;20059;-76
2021/04/25 05:26:02;;;;;;;10.73;5.78;;;;;;;;;;4948274;29;20056;-76
2021/04/25 05:28:30;;;;;;;10.98;5.60;;;;;;;;;;4931427;29;20106;-76
2021/04/25 05:30:57;;;;;;;11.15;5.68;;;;;;;;;;4934097;29;20388;-76
2021/04/25 05:33:23;;;;;;;9.80;5.75;;;;;;;;;;4917321;29;20118;-76
2021/04/25 05:35:49;;;;;;;8.98;6.05;;;;;;;;;;4933280;29;20531;-76
2021/04/25 05:38:15;;;;;;;13.07;6.53;;;;;;;;;;4934040;29;20083;-76
2021/04/25 05:40:41;;;;;;;10.43;6.68;;;;;;;;;;4932834;29;20432;-76
2021/04/25 05:43:07;;;;;;;10.52;5.95;;;;;;;;;;4949665;28;20083;-76
2021/04/25 05:45:34;;;;;;;10.00;6.28;;;;;;;;;;4936620;29;20056;-76
2021/04/25 05:48:01;;;;;;;11.90;6.88;;;;;;;;;;4937173;29;20660;-76
2021/04/25 05:50:28;;;;;;;9.57;5.55;;;;;;;;;;4937292;29;20052;-76
2021/04/25 05:52:55;;;;;;;15.55;6.55;;;;;;;;;;4936052;29;20131;-76
2021/04/25 05:55:21;;;;;;;9.60;6.43;;;;;;;;;;4919842;29;20154;-76
2021/04/25 05:57:47;;;;;;;8.65;5.70;;;;;;;;;;4925479;29;20100;-76
2021/04/25 06:00:16;;;;;;;13.70;6.43;;;;;;;;;;4916923;29;20052;-76
2021/04/25 06:02:42;;;;;;;11.45;6.47;;;;;;;;;;4918077;29;20064;-76
2021/04/25 06:05:09;;;;;;;13.10;6.35;;;;;;;;;;4901018;29;20052;-76
2021/04/25 06:07:35;;;;;;;11.25;6.10;;;;;;;;;;4917186;29;20100;-76
2021/04/25 06:10:04;;;;;;;12.35;6.80;;;;;;;;;;4917758;29;20051;-76
2021/04/25 06:12:30;;;;;;;10.40;6.53;;;;;;;;;;4917737;29;20048;-76
2021/04/25 06:15:01;;;;;;;15.98;6.85;;;;;;;;;;4919702;29;20500;-76
2021/04/25 06:17:27;;;;;;;12.02;6.65;;;;;;;;;;4950947;29;20419;-76
2021/04/25 06:19:53;;;;;;;15.15;7.30;;;;;;;;;;4935482;29;20071;-76
2021/04/25 06:22:19;;;;;;;13.05;6.90;;;;;;;;;;4936576;29;20111;-76
2021/04/25 06:24:45;;;;;;;9.40;5.90;;;;;;;;;;4936640;29;20055;-76
2021/04/25 06:27:11;;;;;;;17.20;9.07;;;;;;;;;;4935448;29;20056;-76
2021/04/25 06:29:37;;;;;;;13.73;7.20;;;;;;;;;;4936159;29;20515;-76
2021/04/25 06:32:04;;;;;;;9.65;6.38;;;;;;;;;;4939624;29;20052;-78
2021/04/25 06:34:30;;;;;;;15.18;7.30;;;;;;;;;;4924664;29;20055;-78
2021/04/25 06:36:57;;;;;;;14.18;7.20;;;;;;;;;;4940443;29;20522;-78
2021/04/25 06:39:23;;;;;;;11.60;6.75;;;;;;;;;;4924324;29;20052;-78
2021/04/25 06:41:49;;;;;;;12.07;6.85;;;;;;;;;;4924107;29;20052;-78
2021/04/25 06:44:15;;;;;;;12.48;6.93;;;;;;;;;;4941410;29;20055;-77
2021/04/25 06:46:41;;;;;;;16.25;8.75;;;;;;;;;;4941018;29;20083;-78
2021/04/25 06:49:07;;;;;;;9.05;6.88;;;;;;;;;;4940314;29;20106;-77
2021/04/25 06:51:33;;;;;;;12.13;7.55;;;;;;;;;;4936100;29;20047;-76
2021/04/25 06:54:00;;;;;;;14.00;8.02;;;;;;;;;;4934567;29;20052;-76
2021/04/25 06:56:26;;;;;;;12.75;7.18;;;;;;;;;;4918244;29;20051;-77
2021/04/25 06:58:52;;;;;;;16.33;8.95;;;;;;;;;;4932722;29;20095;-77
2021/04/25 07:01:18;;;;;;;13.50;7.88;;;;;;;;;;4934044;29;20044;-76
2021/04/25 07:03:44;;;;;;;10.45;7.47;;;;;;;;;;4933973;29;20058;-76
2021/04/25 07:06:11;;;;;;;12.35;7.97;;;;;;;;;;4933398;29;20406;-76
2021/04/25 07:08:37;;;;;;;10.48;7.45;;;;;;;;;;4934260;29;20051;-76
2021/04/25 07:11:04;;;;;;;15.10;8.38;;;;;;;;;;4933117;29;20107;-76
2021/04/25 07:13:30;;;;;;;13.73;8.25;;;;;;;;;;4933508;29;20404;-76
2021/04/25 07:15:56;;;;;;;19.50;8.23;;;;;;;;;;4933092;29;20051;-76
2021/04/25 07:18:23;;;;;;;14.75;8.18;;;;;;;;;;4933550;29;20563;-75
2021/04/25 07:20:49;;;;;;;13.85;8.43;;;;;;;;;;4933380;29;20055;-74
2021/04/25 07:23:15;;;;;;;11.65;7.82;;;;;;;;;;4932957;29;20048;-75
2021/04/25 07:25:41;;;;;;;15.32;8.40;;;;;;;;;;4932129;29;20091;-75
2021/04/25 07:28:07;;;;;;;15.65;9.05;;;;;;;;;;4932140;29;20562;-75
2021/04/25 07:30:33;;;;;;;12.02;7.97;;;;;;;;;;4917217;29;20087;-76
2021/04/25 07:32:59;;;;;;;14.20;8.40;;;;;;;;;;4933306;29;20076;-76
2021/04/25 07:35:25;;;;;;;16.73;8.60;;;;;;;;;;4932602;29;20082;-76
2021/04/25 07:37:52;;;;;;;17.25;9.57;;;;;;;;;;4931420;29;20056;-76
2021/04/25 07:40:18;;;;;;;17.77;9.38;;;;;;;;;;4916093;29;20499;-76
2021/04/25 07:42:44;;;;;;;17.30;9.50;;;;;;;;;;4931768;29;20080;-76
2021/04/25 07:45:12;;;;;;;12.20;8.90;;;;;;;;;;4932885;29;20051;-77
2021/04/25 07:47:40;;;;;;;13.70;9.43;;;;;;;;;;4931705;29;20107;-76
2021/04/25 07:50:07;;;;;;;21.73;10.88;;;;;;;;;;4931126;29;20095;-75
2021/04/25 07:52:34;;;;;;;16.63;10.27;;;;;;;;;;4916194;29;20040;-75
2021/04/25 07:55:01;;;;;;;16.50;10.05;;;;;;;;;;4915478;29;20162;-76
2021/04/25 07:57:28;;;;;;;16.65;9.70;;;;;;;;;;4931220;29;20051;-75
2021/04/25 07:59:54;;;;;;;14.07;10.00;;;;;;;;;;4933299;29;20079;-76
2021/04/25 08:02:22;;;;;;;14.35;9.30;;;;;;;;;;4931833;29;20107;-76
2021/04/25 08:04:50;;;;;;;15.18;10.20;;;;;;;;;;4932897;29;20485;-76
2021/04/25 08:07:16;;;;;;;16.83;10.23;;;;;;;;;;4916078;29;20411;-75
2021/04/25 08:09:43;;;;;;;15.60;9.98;;;;;;;;;;4931489;29;20737;-75
2021/04/25 08:12:09;;;;;;;15.75;10.40;;;;;;;;;;4915586;29;20079;-75
2021/04/25 08:14:35;;;;;;;13.25;10.48;;;;;;;;;;4923624;29;20098;-75
2021/04/25 08:17:02;;;;;;;13.43;9.40;;;;;;;;;;4914430;29;20052;-75
2021/04/25 08:19:28;;;;;;;18.23;9.98;;;;;;;;;;4933252;29;20048;-76
2021/04/25 08:21:54;;;;;;;13.70;9.77;;;;;;;;;;4932387;29;20499;-75
2021/04/25 08:24:20;;;;;;;14.52;9.45;;;;;;;;;;4932412;29;20051;-75
2021/04/25 08:26:46;;;;;;;17.98;10.05;;;;;;;;;;4930626;29;20051;-76
2021/04/25 08:29:13;;;;;;;15.63;9.75;;;;;;;;;;4931805;29;20110;-76
2021/04/25 08:31:39;;;;;;;20.52;10.75;;;;;;;;;;4915505;29;20055;-77
2021/04/25 08:34:05;;;;;;;20.73;10.65;;;;;;;;;;4902024;29;20048;-77
2021/04/25 08:36:31;;;;;;;16.75;10.10;;;;;;;;;;4919736;29;20078;-77
2021/04/25 08:38:58;;;;;;;25.13;10.73;;;;;;;;;;4918445;29;20135;-77
2021/04/25 08:41:24;;;;;;;13.65;10.02;;;;;;;;;;4919825;29;20114;-77
2021/04/25 08:43:51;;;;;;;14.95;9.73;;;;;;;;;;4898479;29;20052;-77
2021/04/25 08:46:21;;;;;;;14.23;9.50;;;;;;;;;;4896427;29;20048;-77
2021/04/25 08:48:48;;;;;;;13.00;9.13;;;;;;;;;;4890535;29;20640;-77
2021/04/25 08:51:17;;;;;;;12.80;8.40;;;;;;;;;;4919969;29;20055;-77
2021/04/25 08:53:45;;;;;;;14.95;8.68;;;;;;;;;;4923547;29;20415;-77
2021/04/25 08:56:12;;;;;;;12.50;8.80;;;;;;;;;;4917008;29;20056;-76
2021/04/25 08:58:39;;;;;;;13.77;8.45;;;;;;;;;;4920667;29;20056;-78
2021/04/25 09:01:06;;;;;;;14.80;8.50;;;;;;;;;;4904638;29;20119;-78
2021/04/25 09:03:34;;;;;;;14.48;8.30;;;;;;;;;;4920573;29;20115;-76
2021/04/25 09:06:01;;;;;;;13.52;7.90;;;;;;;;;;4907076;29;20260;-73
2021/04/25 09:08:56;;;;;;;11.95;7.85;;;;;;;;;;4901912;29;20095;-76
2021/04/25 09:11:43;;;;;;;14.00;7.93;;;;;;;;;;4887931;29;20107;-76
2021/04/25 09:14:25;;;;;;;13.30;8.98;;;;;;;;;;4886759;29;20184;-75
2021/04/25 09:17:09;;;;;;;14.68;8.57;;;;;;;;;;4900827;29;20628;-75
2021/04/25 09:19:53;;;;;;;11.52;7.72;;;;;;;;;;4893011;29;20163;-74
2021/04/25 09:22:20;;;;;;;15.02;7.97;;;;;;;;;;4907961;29;20075;-74
2021/04/25 09:24:46;;;;;;;12.85;8.75;;;;;;;;;;4933327;23;20059;-69
2021/04/25 09:27:24;;;;;;;13.75;9.43;;;;;;;;;;4921343;29;20064;-68
2021/04/25 09:29:52;;;;;;;12.45;8.82;;;;;;;;;;4899983;29;20115;-68
2021/04/25 09:32:20;;;;;;;15.20;8.80;;;;;;;;;;4898216;29;20457;-69
2021/04/25 09:34:46;;;;;;;13.27;7.88;;;;;;;;;;4899073;29;20510;-70
2021/04/25 09:37:21;;;;;;;13.32;8.95;;;;;;;;;;4897829;29;20209;-71
2021/04/25 09:40:08;;;;;;;11.05;9.02;;;;;;;;;;4896471;29;20056;-71
2021/04/25 09:43:00;;;;;;;12.25;8.90;;;;;;;;;;4912622;29;20051;-71
2021/04/25 09:45:32;;;;;;;12.75;8.30;;;;;;;;;;4880012;29;20104;-71
2021/04/25 09:47:59;;;;;;;12.73;8.27;;;;;;;;;;4883329;29;20052;-71
2021/04/25 09:50:26;;;;;;;14.68;8.63;;;;;;;;;;4896581;29;20044;-71
2021/04/25 09:52:52;;;;;;;11.13;8.20;;;;;;;;;;4881760;29;20044;-70
2021/04/25 09:55:31;;;;;;;10.40;7.57;;;;;;;;;;4895754;29;20467;-71
2021/04/25 09:58:04;;;;;;;10.18;7.93;;;;;;;;;;4899188;29;20064;-71
2021/04/25 10:00:48;;;;;;;12.70;7.45;;;;;;;;;;4883207;29;20044;-69
2021/04/25 10:03:18;;;;;;;12.75;7.32;;;;;;;;;;4896893;29;20471;-68
2021/04/25 10:06:04;;;;;;;13.50;7.13;;;;;;;;;;4907390;29;20056;-68
2021/04/25 10:08:37;;;;;;;12.57;7.32;;;;;;;;;;4892524;29;20140;-69
2021/04/25 10:11:05;;;;;;;13.57;7.25;;;;;;;;;;4881725;29;20396;-70
2021/04/25 10:13:35;;;;;;;10.98;6.70;;;;;;;;;;4895662;29;20467;-70
2021/04/25 10:16:02;;;;;;;11.27;6.72;;;;;;;;;;4885609;29;20135;-70
2021/04/25 10:18:28;;;;;;;11.02;6.57;;;;;;;;;;4912486;29;20494;-75
2021/04/25 10:20:56;;;;;;;8.32;6.60;;;;;;;;;;4919341;29;20052;-72
2021/04/25 10:23:23;;;;;;;11.43;6.35;;;;;;;;;;4909981;29;20052;-72
2021/04/25 10:25:49;;;;;;;10.43;6.40;;;;;;;;;;4895486;29;20444;-71
2021/04/25 10:28:18;;;;;;;10.32;6.88;;;;;;;;;;4909842;29;20068;-71
2021/04/25 10:30:46;;;;;;;16.27;6.85;;;;;;;;;;4888896;29;20060;-74
2021/04/25 10:33:12;;;;;;;10.88;7.13;;;;;;;;;;4908990;29;20120;-74
2021/04/25 10:35:39;;;;;;;12.25;6.85;;;;;;;;;;4894694;29;20052;-71
2021/04/25 10:38:06;;;;;;;10.70;6.38;;;;;;;;;;4891247;29;20064;-72
2021/04/25 10:40:35;;;;;;;11.43;6.93;;;;;;;;;;4891033;29;20080;-71
2021/04/25 10:43:05;;;;;;;10.93;6.38;;;;;;;;;;4901749;29;20083;-72
2021/04/25 10:45:35;;;;;;;8.48;5.68;;;;;;;;;;4916974;29;20052;-72
2021/04/25 10:48:34;;;;;;;9.00;5.63;;;;;;;;;;4911398;29;20416;-72
2021/04/25 10:51:20;;;;;;;8.00;6.05;;;;;;;;;;4875143;29;20147;-70
2021/04/25 10:53:47;;;;;;;7.80;5.13;;;;;;;;;;4899700;29;20075;-70
2021/04/25 10:56:16;;;;;;;8.50;5.07;;;;;;;;;;4895620;29;20059;-71
2021/04/25 10:58:44;;;;;;;9.93;5.18;;;;;;;;;;4911664;29;20460;-69
2021/04/25 11:01:35;;;;;;;10.85;4.85;;;;;;;;;;4882238;29;20055;-68
2021/04/25 11:04:02;;;;;;;5.95;4.22;;;;;;;;;;4906710;29;20100;-71
2021/04/25 11:06:28;;;;;;;8.52;4.82;;;;;;;;;;4907015;29;20053;-72
2021/04/25 11:08:55;;;;;;;6.93;4.63;;;;;;;;;;4908656;29;20475;-71
2021/04/25 11:11:46;;;;;;;7.15;4.35;;;;;;;;;;4893910;29;20078;-72
2021/04/25 11:14:13;;;;;;;7.65;5.30;;;;;;;;;;4868199;29;20052;-74
2021/04/25 11:16:40;;;;;;;7.28;4.00;;;;;;;;;;4900750;29;20090;-73
2021/04/25 11:19:12;;;;;;;6.47;3.92;;;;;;;;;;4879956;29;20055;-71
2021/04/25 11:21:43;;;;;;;5.90;3.70;;;;;;;;;;4864005;29;20052;-72
2021/04/25 11:24:09;;;;;;;7.25;4.03;;;;;;;;;;4908976;29;20056;-72
2021/04/25 11:29:25;;;;;;;6.28;3.78;;;;;;;;;;4907981;29;20052;-72
2021/04/25 11:31:56;;;;;;;5.65;3.38;;;;;;;;;;4908533;29;20076;-73
2021/04/25 11:34:22;;;;;;;5.05;3.40;;;;;;;;;;4893522;29;20052;-71
2021/04/25 11:37:07;;;;;;;5.75;3.40;;;;;;;;;;4904999;29;20103;-71
2021/04/25 11:39:39;;;;;;;4.78;2.85;;;;;;;;;;4908956;29;20080;-72
2021/04/25 11:42:06;;;;;;;6.50;3.33;;;;;;;;;;4895952;29;20165;-69
2021/04/25 11:44:34;;;;;;;6.55;3.67;;;;;;;;;;4876458;29;20052;-75
2021/04/25 11:47:07;;;;;;;6.47;3.20;;;;;;;;;;4879513;29;20047;-70
2021/04/25 11:49:38;;;;;;;4.05;2.72;;;;;;;;;;4879833;29;20048;-72
2021/04/25 11:52:15;;;;;;;4.90;3.22;;;;;;;;;;4903083;29;20060;-71
2021/04/25 11:54:46;;;;;;;5.05;2.80;;;;;;;;;;4903281;29;20048;-69
2021/04/25 11:57:19;;;;;;;4.65;3.08;;;;;;;;;;4880409;29;20582;-70
2021/04/25 12:00:05;;;;;;;;;;;;;;;;;;4908122;29;20053;-71
2021/04/25 12:02:33;;;;;;;6.60;3.13;;;;;;;;;;4895001;29;20389;-71
2021/04/25 12:05:04;;;;;;;4.68;2.72;;;;;;;;;;4879130;29;20052;-70
2021/04/25 12:07:40;;;;;;;6.15;3.17;;;;;;;;;;4866276;29;20052;-70
2021/04/25 12:10:31;;;;;;;4.75;2.70;;;;;;;;;;4906516;29;20115;-70
2021/04/25 12:12:57;;;;;;;4.40;2.95;;;;;;;;;;4896024;29;20588;-70
2021/04/25 12:15:24;;;;;;;7.00;3.45;;;;;;;;;;4904635;29;20052;-70
2021/04/25 12:17:57;;;;;;;5.32;2.75;;;;;;;;;;4897519;29;20052;-67
2021/04/25 12:20:25;;;;;;;5.97;2.75;;;;;;;;;;4896121;29;20193;-68
2021/04/25 12:22:51;;;;;;;5.75;3.33;;;;;;;;;;4875629;29;20052;-69
2021/04/25 12:25:18;;;;;;;5.70;2.70;;;;;;;;;;4879639;29;20056;-69
2021/04/25 12:27:52;;;;;;;3.97;2.53;;;;;;;;;;4879116;29;20127;-68
2021/04/25 12:30:23;;;;;;;5.57;2.38;;;;;;;;;;4859726;29;21962;-68
2021/04/25 12:33:10;;;;;;;6.22;2.05;;;;;;;;;;4916509;29;20047;-69
2021/04/25 12:35:39;;;;;;;3.70;2.28;;;;;;;;;;4897673;29;20111;-69
2021/04/25 12:38:15;;;;;;;4.35;2.35;;;;;;;;;;4925854;29;20056;-68
2021/04/25 12:40:41;;;;;;;8.63;2.58;;;;;;;;;;4928060;29;20095;-68
2021/04/25 12:43:08;;;;;;;4.53;2.40;;;;;;;;;;4940049;28;20051;-68
2021/04/25 12:45:35;;;;;;;4.53;2.42;;;;;;;;;;4902335;29;20088;-69
2021/04/25 12:48:24;;;;;;;3.97;2.17;;;;;;;;;;4917232;29;20110;-67
2021/04/25 12:51:03;;;;;;;4.30;2.53;;;;;;;;;;4912960;29;20100;-66
2021/04/25 12:53:30;;;;;;;3.00;2.15;;;;;;;;;;4933855;29;20055;-66
2021/04/25 12:55:56;;;;;;;3.78;2.33;;;;;;;;;;4905214;29;20085;-67
2021/04/25 12:58:22;;;;;;;4.85;2.20;;;;;;;;;;4921364;29;20047;-67
2021/04/25 13:00:48;;;;;;;6.07;3.22;;;;;;;;;;4938043;29;20055;-67
2021/04/25 13:03:31;;;;;;;5.78;2.28;;;;;;;;;;4937707;29;20051;-67
2021/04/25 13:06:02;;;;;;;4.00;2.67;;;;;;;;;;4920518;29;20533;-66
2021/04/25 13:08:30;;;;;;;3.17;2.00;;;;;;;;;;4921894;29;20306;-66
2021/04/25 13:10:56;;;;;;;7.28;2.33;;;;;;;;;;4905348;29;20421;-66
2021/04/25 13:13:22;;;;;;;3.78;2.22;;;;;;;;;;4937523;29;20487;-66
2021/04/25 13:15:48;;;;;;;3.45;2.30;;;;;;;;;;4938145;29;20515;-66
2021/04/25 13:18:15;;;;;;;4.47;2.40;;;;;;;;;;4905396;29;20107;-67
2021/04/25 13:20:49;;;;;;;6.38;2.42;;;;;;;;;;4905066;29;20056;-67
2021/04/25 13:23:21;;;;;;;3.22;1.83;;;;;;;;;;4936757;29;20090;-66
2021/04/25 13:25:48;;;;;;;3.10;2.08;;;;;;;;;;4937080;29;20082;-67
2021/04/25 13:28:20;;;;;;;3.20;2.08;;;;;;;;;;4937466;29;20477;-66
2021/04/25 13:31:01;;;;;;;3.72;2.15;;;;;;;;;;4904955;29;20055;-67
2021/04/25 13:33:32;;;;;;;3.30;2.25;;;;;;;;;;4921624;29;20216;-66
2021/04/25 13:36:00;;;;;;;3.97;2.20;;;;;;;;;;4937058;29;20079;-66
2021/04/25 13:38:26;;;;;;;3.67;2.33;;;;;;;;;;4937376;29;20498;-66
2021/04/25 13:40:59;;;;;;;4.57;2.17;;;;;;;;;;4920497;29;20585;-68
2021/04/25 13:43:25;;;;;;;7.07;1.92;;;;;;;;;;4919333;29;20582;-66
2021/04/25 13:45:51;;;;;;;5.05;2.38;;;;;;;;;;4936814;29;20052;-69
2021/04/25 13:48:18;;;;;;;1.98;1.77;;;;;;;;;;4904652;29;20474;-67
2021/04/25 13:50:45;;;;;;;3.42;1.83;;;;;;;;;;4920233;29;20103;-67
2021/04/25 13:53:11;;;;;;;3.33;2.28;;;;;;;;;;4920163;29;20052;-67
2021/04/25 13:55:37;;;;;;;5.10;1.90;;;;;;;;;;4919851;29;20055;-66
2021/04/25 13:58:03;;;;;;;2.67;2.00;;;;;;;;;;4904014;29;20047;-67
2021/04/25 14:00:31;;;;;;;4.25;1.88;;;;;;;;;;4920079;29;20554;-68
2021/04/25 14:02:58;;;;;;;4.95;2.03;;;;;;;;;;4903316;29;20426;-67
2021/04/25 14:05:24;;;;;;;2.92;1.77;;;;;;;;;;4933356;29;20415;-67
2021/04/25 14:07:51;;;;;;;3.55;2.00;;;;;;;;;;4936809;29;20536;-66
2021/04/25 14:10:20;;;;;;;4.10;1.77;;;;;;;;;;4900582;29;20400;-67
2021/04/25 14:12:47;;;;;;;4.22;1.90;;;;;;;;;;4917842;29;20131;-67
2021/04/25 14:15:17;;;;;;;3.25;1.67;;;;;;;;;;4900313;29;20151;-67
2021/04/25 14:17:43;;;;;;;4.22;2.08;;;;;;;;;;4896941;29;20099;-66
2021/04/25 14:20:10;;;;;;;2.78;1.88;;;;;;;;;;4919596;29;20158;-67
2021/04/25 14:22:36;;;;;;;3.05;1.73;;;;;;;;;;4919743;29;20062;-66
2021/04/25 14:25:15;;;;;;;2.97;1.85;;;;;;;;;;4936012;29;20052;-67
2021/04/25 14:27:43;;;;;;;4.97;1.80;;;;;;;;;;4919332;29;20079;-67
2021/04/25 14:30:11;;;;;;;2.70;1.88;;;;;;;;;;4919517;29;20110;-67
2021/04/25 14:32:37;;;;;;;2.95;1.77;;;;;;;;;;4903424;29;20048;-67
2021/04/25 14:35:04;;;;;;;2.83;1.77;;;;;;;;;;4935013;29;20521;-67
2021/04/25 14:37:30;;;;;;;4.07;2.10;;;;;;;;;;4925483;29;20115;-67
2021/04/25 14:39:56;;;;;;;5.50;1.90;;;;;;;;;;4900289;29;20052;-68
2021/04/25 14:42:23;;;;;;;2.40;1.95;;;;;;;;;;4900407;29;20444;-67
2021/04/25 14:44:49;;;;;;;3.33;2.10;;;;;;;;;;4900482;29;20056;-66
2021/04/25 14:47:15;;;;;;;2.67;2.10;;;;;;;;;;4935360;29;20471;-66